x

9418767 - North Spit, Ca (hbyc1) Weather Station

4:30pm - Wed 1st Jul 2015 All times are PDT. -7 hours from GMT.

  • Wind
    6mph, 7mph gusts
  • Sea Temp 55°f
  • Air Temp 56°f
  • Sea Pressure 1014.9mb
  • 9418767 - North Spit, Ca
  • 9418767 - North Spit, Ca

More Historic Weather Station data

Upgrade to MSW Pro to gain access to the past 30 days of data for over 8000 Wavebouys and Weather Stations around the globe.

Join Pro

Comparision Forecast

View Surf forecast
   
Wed 07/01 4:30pm 6 7 mph 1014.9mb 55f 56f
4:24pm 7 9 mph 1014.8mb 55f 57f
4:18pm 6 7 mph 1014.9mb 55f 57f
4:12pm 7 8 mph 1014.8mb 55f 57f
4:06pm 7 8 mph 1014.8mb 55f 57f
4:00pm 7 8 mph 1014.8mb 55f 57f
3:36pm 7 8 mph 1014.8mb 55f 57f
3:30pm 6 8 mph 1014.8mb 55f 57f
3:24pm 7 9 mph 1014.7mb 55f 57f
3:18pm 7 8 mph 1014.7mb 55f 57f
3:12pm 6 7 mph 1014.7mb 55f 57f
3:06pm 7 9 mph 1014.6mb 54f 57f
3:00pm 7 8 mph 1014.6mb 54f 56f
2:36pm 7 8 mph 1014.3mb 53f 56f
2:30pm 7 8 mph 1014.3mb 53f 56f
2:24pm 7 9 mph 1014.2mb 53f 55f
2:18pm 7 9 mph 1014.3mb 53f 55f
2:12pm 8 9 mph 1014.3mb 53f 56f
2:06pm 8 9 mph 1014.2mb 53f 56f
2:00pm 8 10 mph 1014.1mb 53f 55f
1:36pm 7 9 mph 1013.9mb 54f 54f
1:30pm 8 10 mph 1013.9mb 54f 54f
1:24pm 8 9 mph 1013.9mb 54f 54f
1:18pm 7 9 mph 1013.9mb 54f 55f
1:12pm 6 8 mph 1014mb 54f 54f
1:06pm 6 9 mph 1013.9mb 54f 54f
1:00pm 7 8 mph 1013.8mb 55f 54f
12:36pm 7 8 mph 1013.7mb 55f 54f
12:30pm 7 9 mph 1013.6mb 55f 54f
12:24pm 6 8 mph 1013.6mb 55f 54f
12:18pm 7 8 mph 1013.6mb 55f 54f
12:12pm 7 8 mph 1013.5mb 55f 53f
12:06pm 7 8 mph 1013.5mb 56f 53f
12:00pm 7 8 mph 1013.4mb 56f 53f
11:36am 7 8 mph 1013.2mb 56f 53f
11:30am 7
mph
1013.2mb 56f 53f
11:24am 6 7 mph 1013.1mb 57f 53f
11:18am 5 7 mph 1013.1mb 57f 54f
11:12am 3 6 mph 1013mb 57f 53f
11:06am 5 6 mph 1012.9mb 57f 54f
11:00am 3 6 mph 1012.9mb 58f 53f
10:36am 6 7 mph 1012.6mb 60f 53f
10:30am 6 7 mph 1012.6mb 61f 52f
10:24am 6 7 mph 1012.6mb 61f 52f
10:18am 7
mph
1012.5mb 62f 52f
10:12am 6 7 mph 1012.5mb 62f 52f
10:06am 6
mph
1012.5mb 62f 52f
10:00am 5 6 mph 1012.5mb 62f 52f
9:36am 5 6 mph 1012.2mb 62f 53f
9:30am 5 6 mph 1012mb 62f 53f
9:24am 3 5 mph 1012mb 63f 53f
9:18am 3 5 mph 1012mb 63f 53f
9:12am 2
mph
1012.1mb 63f 53f
9:06am 2 3 mph 1012.1mb 63f 53f
9:00am 3
mph
1012mb 63f 53f
8:36am 2 3 mph 1011.9mb 63f 53f
8:30am 3 6 mph 1011.9mb 63f 53f
8:24am 6
mph
1011.9mb 63f 53f
8:18am 6 7 mph 1011.8mb 63f 53f
8:12am 6
mph
1011.8mb 63f 53f
8:06am 6
mph
1011.8mb 63f 52f
8:00am 5 6 mph 1011.7mb 63f 52f
7:36am 6 7 mph 1011.4mb 62f 53f
7:30am 7 8 mph 1011.4mb 62f 53f
7:24am 7 8 mph 1011.4mb 62f 53f
7:18am 6 7 mph 1011.4mb 62f 53f
7:12am 7
mph
1011.5mb 62f 52f
7:06am 6 7 mph 1011.5mb 62f 52f
7:00am 6 7 mph 1011.5mb 62f 53f
6:36am 5 6 mph 1011.5mb 60f 53f
6:30am 5 6 mph 1011.5mb 59f 53f
6:24am 5 6 mph 1011.5mb 59f 53f
6:18am 6
mph
1011.5mb 59f 53f
6:12am 6 7 mph 1011.5mb 59f 53f
6:06am 6
mph
1011.5mb 59f 53f
6:00am 6 7 mph 1011.5mb 58f 53f
5:36am 7 8 mph 1011.4mb 58f 53f
5:30am 7 8 mph 1011.4mb 58f 53f
5:24am 7
mph
1011.4mb 57f 53f
5:18am 6 7 mph 1011.4mb 57f 53f
5:12am 6
mph
1011.3mb 57f 53f
5:06am 3 6 mph 1011.3mb 57f 53f
5:00am 6
mph
1011.3mb 56f 53f
4:36am 5
mph
1011.3mb 56f 53f
4:30am 5 6 mph 1011.3mb 56f 53f
4:24am 3 5 mph 1011.3mb 56f 53f
4:18am 3 5 mph 1011.3mb 56f 53f
4:12am 3 5 mph 1011.2mb 56f 53f
4:06am 3 5 mph 1011.2mb 56f 53f
4:00am 3 6 mph 1011.3mb 55f 53f
3:36am 2 3 mph 1011.3mb 55f 54f
3:30am 1 3 mph 1011.4mb 55f 54f
3:24am 2 3 mph 1011.4mb 55f 54f
3:18am 2 3 mph 1011.5mb 55f 53f
3:12am 3 5 mph 1011.5mb 55f 53f
3:06am 2 5 mph 1011.5mb 55f 54f
3:00am 5
mph
1011.5mb 55f 53f
2:36am 2 3 mph 1011.5mb 55f 53f
2:30am 2 5 mph 1011.5mb 55f 53f
2:24am 3 5 mph 1011.6mb 55f 53f
2:18am 3 5 mph 1011.7mb 55f 53f
2:12am 5 7 mph 1011.8mb 55f 53f
2:06am 5 6 mph 1011.7mb 55f 53f
2:00am 5 7 mph 1011.8mb 55f 53f
1:36am 7 8 mph 1012.1mb 55f 53f
1:30am 6 7 mph 1012.1mb 55f 53f
1:24am 6 7 mph 1012.1mb 55f 53f
1:18am 6 7 mph 1012.3mb 55f 53f
1:12am 6 7 mph 1012.3mb 55f 54f
1:06am 6 7 mph 1012.3mb 55f 54f
1:00am 5 6 mph 1012.4mb 55f 54f
12:36am 2 3 mph 1012.7mb 54f 54f
12:30am 2
mph
1012.8mb 54f 54f
12:24am 1 2 mph 1012.8mb 54f 54f
12:18am 1 2 mph 1012.9mb 54f 54f
12:12am 1 3 mph 1012.9mb 54f 54f
12:06am 2
mph
1013mb 55f 54f
12:00am  -  mph 1013mb 55f 54f
Tue 06/30 11:36pm 3 5 mph 1013.3mb 55f 54f
11:30pm 3 6 mph 1013.3mb 55f 54f
11:24pm 2 5 mph 1013.3mb 55f 54f
11:18pm 3 5 mph 1013.4mb 55f 54f
11:12pm 3 5 mph 1013.4mb 55f 54f
11:06pm 2 3 mph 1013.5mb 55f 54f
11:00pm 2 3 mph 1013.5mb 56f 54f
10:36pm 1 3 mph 1013.6mb 56f 54f
10:30pm 2 3 mph 1013.6mb 55f 54f
10:24pm 2 3 mph 1013.6mb 55f 54f
10:18pm 3 5 mph 1013.6mb 55f 54f
10:12pm 2 3 mph 1013.6mb 56f 54f
10:06pm 3 5 mph 1013.5mb 56f 54f
10:00pm 6 7 mph 1013.5mb 56f 53f
9:36pm  -  1 mph 1013.6mb 56f 54f
9:30pm 1 3 mph 1013.6mb 57f 54f
9:24pm 2 3 mph 1013.5mb 57f 54f
9:18pm 1 3 mph 1013.4mb 57f 54f
9:12pm 2 6 mph 1013.4mb 57f 54f
9:06pm 3 6 mph 1013.5mb 58f 54f
9:00pm 5 6 mph 1013.5mb 58f 54f
8:36pm 5 6 mph 1013.6mb 58f 54f
8:30pm 6
mph
1013.6mb 58f 54f
8:24pm 6 7 mph 1013.7mb 58f 54f
8:18pm 7
mph
1013.7mb 58f 54f
8:12pm 6 9 mph 1013.7mb 58f 54f
8:06pm 8 9 mph 1013.7mb 58f 54f
8:00pm 8 9 mph 1013.8mb 58f 54f
7:36pm 8 9 mph 1013.8mb 58f 54f
7:30pm 7 9 mph 1013.8mb 58f 54f
7:24pm 8 10 mph 1013.8mb 58f 54f
7:18pm 10 13 mph 1013.8mb 58f 54f
7:12pm 9 11 mph 1013.8mb 58f 54f
7:06pm 9 10 mph 1013.8mb 58f 54f
7:00pm 9 10 mph 1013.9mb 58f 54f
6:36pm 11 15 mph 1013.9mb 58f 54f
6:30pm 9 11 mph 1014mb 58f 54f
6:24pm 11 14 mph 1014mb 57f 54f
6:18pm 10 13 mph 1014mb 57f 54f
6:12pm 11 13 mph 1014.1mb 57f 54f
6:06pm 10 13 mph 1014mb 57f 54f
6:00pm 9 13 mph 1014mb 57f 54f
5:36pm 9 10 mph 1014.1mb 57f 54f
5:30pm 7 9 mph 1014.2mb 56f 54f
5:24pm 9 10 mph 1014.4mb 56f 54f
5:18pm 8 9 mph 1014.3mb 56f 54f
5:12pm 7 8 mph 1014.4mb 56f 55f
5:06pm 7 10 mph 1014.4mb 56f 54f
5:00pm 9 10 mph 1014.4mb 56f 54f
4:54pm 9 10 mph 1014.4mb 56f 54f
4:48pm 10 11 mph 1014.4mb 56f 54f
4:36pm 10 13 mph 1014.5mb 56f 54f
3:36pm 7 9 mph 1014.7mb 56f 54f
3:30pm 8 9 mph 1014.9mb 56f 54f
3:24pm 8 10 mph 1014.9mb 56f 54f
3:18pm 7 9 mph 1015mb 56f 54f
3:12pm 6 8 mph 1015mb 56f 54f
3:06pm 7 8 mph 1015mb 56f 54f
3:00pm 8 10 mph 1015.1mb 56f 54f
2:54pm 9 11 mph 1015.1mb 56f 54f
2:48pm 9 11 mph 1015.2mb 56f 54f
2:36pm 11 13 mph 1015.3mb 56f 53f
2:30pm 11 14 mph 1015.3mb 56f 53f
2:24pm 10 13 mph 1015.4mb 56f 53f
2:18pm 9 11 mph 1015.4mb 56f 53f
2:12pm 9 10 mph 1015.4mb 56f 54f
2:06pm 10 11 mph 1015.5mb 56f 53f
2:00pm 9 10 mph 1015.5mb 56f 53f
1:54pm 9 11 mph 1015.5mb 56f 53f
1:48pm 8 9 mph 1015.6mb 56f 53f
1:36pm 9 11 mph 1015.7mb 56f 53f
1:30pm 9 11 mph 1015.7mb 56f 53f
1:24pm 9 11 mph 1015.7mb 56f 53f
1:18pm 9 13 mph 1015.7mb 56f 53f
1:12pm 9 14 mph 1015.8mb 56f 54f
1:06pm 10 14 mph 1015.8mb 57f 54f
1:00pm 7 9 mph 1015.8mb 57f 54f
12:54pm 8 10 mph 1015.8mb 57f 54f
12:48pm 8 9 mph 1015.8mb 56f 54f
12:36pm 6 7 mph 1015.9mb 57f 54f
12:30pm 6 7 mph 1016mb 56f 54f
12:24pm 6 7 mph 1016mb 56f 53f
12:18pm 5 7 mph 1016.1mb 56f 53f
12:12pm 7 8 mph 1016.1mb 57f 54f
12:06pm 6 8 mph 1016.2mb 57f 53f
12:00pm 5 6 mph 1016.2mb 57f 54f
11:54am 5 6 mph 1016.2mb 57f 54f
11:48am 3 6 mph 1016.3mb 57f 54f
11:36am 1 3 mph 1016.3mb 58f 54f
11:30am 2 5 mph 1016.4mb 58f 53f
11:24am 2 3 mph 1016.3mb 58f 53f
11:18am 1 2 mph 1016.4mb 58f 53f
11:12am  -  3 mph 1016.4mb 58f 54f
11:06am  -  2 mph 1016.4mb 58f 54f
11:00am  -  2 mph 1016.4mb 59f 53f
10:54am  -  2 mph 1016.4mb 59f 53f
10:48am 2 3 mph 1016.4mb 59f 53f
10:36am 3 5 mph 1016.4mb 59f 53f
10:30am 3 6 mph 1016.5mb 59f 52f
10:24am 5 7 mph 1016.6mb 60f 52f
10:18am 5 6 mph 1016.6mb 60f 53f
10:12am 3 7 mph 1016.6mb 60f 53f
10:06am 3 5 mph 1016.7mb 61f 53f
10:00am 3 5 mph 1016.8mb 61f 53f
9:54am 5 6 mph 1016.7mb 61f 52f
9:48am 6
mph
1016.8mb 61f 53f
9:36am 6 7 mph 1016.8mb 62f 53f
9:30am 6
mph
1016.8mb 62f 53f
9:24am 3 5 mph 1016.8mb 62f 53f
9:18am 3
mph
1016.9mb 62f 53f
9:12am 3
mph
1016.9mb 62f 53f
9:06am 3 5 mph 1016.9mb 62f 53f
9:00am 5
mph
1016.9mb 62f 53f
8:54am 3
mph
1017mb 62f 53f
8:48am 5 6 mph 1017.1mb 62f 53f
8:36am 3 5 mph 1017mb 62f 53f
8:30am 3 6 mph 1017.1mb 62f 53f
8:24am 5 6 mph 1017mb 62f 53f
8:18am 3 5 mph 1017mb 63f 53f
8:12am 3 5 mph 1017mb 62f 53f
8:06am 3 5 mph 1016.9mb 62f 53f
8:00am 3 6 mph 1016.9mb 62f 53f
7:54am 6
mph
1017mb 62f 53f
7:48am 5 6 mph 1016.9mb 62f 52f
7:36am 5
mph
1017mb 62f 53f
7:30am 5 6 mph 1017mb 62f 53f
7:24am 5 6 mph 1017mb 62f 52f
7:18am 6 8 mph 1017mb 62f 53f
7:12am 7 9 mph 1017mb 62f 52f
7:06am 8 9 mph 1017mb 62f 52f
7:00am 8 10 mph 1017.1mb 62f 52f
6:54am 10 14 mph 1017.1mb 62f 53f
6:48am 10 11 mph 1017mb 62f 52f
6:36am 8 9 mph 1017mb 61f 53f
6:30am 7 10 mph 1017mb 61f 52f
6:24am 7 9 mph 1017mb 61f 52f
6:18am 7 8 mph 1017mb 60f 52f
6:12am 8 9 mph 1017.1mb 60f 52f
6:06am 7 11 mph 1017.1mb 60f 52f
6:00am 9 13 mph 1017.1mb 60f 52f
5:54am 10 11 mph 1017.2mb 60f 52f
5:48am 9 10 mph 1017.3mb 60f 53f
5:36am 10 13 mph 1017.3mb 59f 53f
5:30am 9 11 mph 1017.3mb 58f 53f
5:24am 11 13 mph 1017.4mb 58f 53f
5:18am 11 13 mph 1017.4mb 58f 53f
5:12am 13 15 mph 1017.4mb 58f 53f
5:06am 15 16 mph 1017.5mb 57f 53f
5:00am 16 17 mph 1017.6mb 57f 53f
4:54am 14 15 mph 1017.6mb 57f 53f
4:48am 13 15 mph 1017.6mb 56f 53f
4:36am 13 14 mph 1017.7mb 56f 53f
4:30am 11 15 mph 1017.7mb 56f 53f
4:24am 13 15 mph 1017.7mb 56f 53f
4:18am 13 14 mph 1017.7mb 56f 53f
4:12am 13 14 mph 1017.7mb 56f 53f
4:06am 11 14 mph 1017.7mb 56f 53f
4:00am 14 16 mph 1017.7mb 56f 53f
3:54am 15 16 mph 1017.7mb 55f 53f
3:48am 16 18 mph 1017.6mb 55f 53f
3:36am 16 17 mph 1017.7mb 55f 53f
3:30am 16 18 mph 1017.7mb 55f 53f
3:24am 15 18 mph 1017.8mb 55f 53f
3:18am 16 18 mph 1017.8mb 55f 53f
3:12am 15 16 mph 1017.7mb 55f 53f
3:06am 13 15 mph 1017.8mb 55f 53f
3:00am 14 15 mph 1017.8mb 55f 53f
2:54am 14 16 mph 1017.8mb 55f 53f
2:48am 13 14 mph 1017.9mb 55f 54f
2:36am 13 14 mph 1017.9mb 55f 54f
2:30am 14 16 mph 1017.9mb 55f 54f
2:24am 14 16 mph 1017.9mb 55f 54f
2:18am 14 15 mph 1017.9mb 55f 54f
2:12am 11 14 mph 1018mb 55f 54f
2:06am 11 15 mph 1018mb 55f 54f
2:00am 13 15 mph 1018mb 55f 54f
1:54am 15 17 mph 1018mb 55f 54f
1:48am 14 17 mph 1018.2mb 55f 53f
1:36am 14 16 mph 1018.2mb 55f 53f
1:30am 14 16 mph 1018.2mb 55f 53f
1:24am 14 16 mph 1018.3mb 55f 53f
1:18am 14 15 mph 1018.3mb 55f 53f
1:12am 14 15 mph 1018.3mb 55f 53f
1:06am 14 17 mph 1018.4mb 55f 53f
1:00am 13 15 mph 1018.3mb 55f 53f
12:54am 14 15 mph 1018.4mb 55f 53f
12:48am 14 16 mph 1018.4mb 55f 53f
12:36am 13 17 mph 1018.4mb 55f 53f
12:30am 15 16 mph 1018.4mb 55f 53f
12:24am 15 16 mph 1018.4mb 55f 53f
12:18am 15 16 mph 1018.5mb 55f 53f
12:12am 14 16 mph 1018.5mb 55f 53f
12:06am 15 17 mph 1018.5mb 55f 53f
12:00am 15 17 mph 1018.5mb 55f 53f
Mon 06/29 11:54pm 15 17 mph 1018.5mb 55f 53f
11:48pm 16 18 mph 1018.5mb 55f 53f
11:36pm 16 18 mph 1018.6mb 55f 53f
11:30pm 17 20 mph 1018.5mb 55f 53f
11:24pm 17 21 mph 1018.5mb 55f 53f
11:18pm 17 20 mph 1018.6mb 55f 53f
11:12pm 17 20 mph 1018.7mb 55f 53f
11:06pm 20 22 mph 1018.7mb 55f 53f
11:00pm 17 21 mph 1018.7mb 55f 53f
10:54pm 17 20 mph 1018.8mb 55f 53f
10:48pm 18 20 mph 1018.8mb 55f 53f
10:36pm 18 20 mph 1018.7mb 55f 53f
10:30pm 16 20 mph 1018.6mb 55f 53f
10:24pm 18 21 mph 1018.6mb 55f 53f
10:18pm 18 21 mph 1018.6mb 55f 53f
10:12pm 18 21 mph 1018.6mb 55f 53f
10:06pm 17 20 mph 1018.7mb 55f 53f
10:00pm 18 20 mph 1018.6mb 55f 52f
9:54pm 15 21 mph 1018.7mb 55f 52f
9:48pm 18 21 mph 1018.6mb 55f 52f
9:36pm 20 22 mph 1018.5mb 56f 52f
9:30pm 20 22 mph 1018.4mb 56f 53f
9:24pm 18 23 mph 1018.4mb 56f 53f
9:18pm 18 22 mph 1018.4mb 56f 53f
9:12pm 18 21 mph 1018.3mb 57f 54f
9:06pm 17 20 mph 1018.3mb 57f 54f
9:00pm 17 20 mph 1018.4mb 57f 54f
8:54pm 17 18 mph 1018.4mb 57f 54f
8:48pm 16 20 mph 1018.4mb 57f 54f
8:36pm 17 20 mph 1018.2mb 58f 54f
8:30pm 16 20 mph 1018.2mb 58f 54f
8:24pm 18 20 mph 1018.2mb 58f 55f
8:18pm 16 18 mph 1018.2mb 58f 55f
8:12pm 15 17 mph 1018.3mb 58f 55f
8:06pm 17 21 mph 1018.3mb 58f 55f
8:00pm 17 18 mph 1018.3mb 58f 55f
7:54pm 13 15 mph 1018.4mb 58f 55f
7:48pm 10 13 mph 1018.3mb 58f 55f
7:36pm 10 11 mph 1018.3mb 58f 56f
7:30pm 10 11 mph 1018.3mb 58f 56f
7:24pm 9 10 mph 1018.3mb 58f 56f
7:18pm 9 10 mph 1018.3mb 58f 56f
7:12pm 8 9 mph 1018.3mb 58f 56f
7:06pm 7 8 mph 1018.3mb 58f 56f
7:00pm 7 8 mph 1018.3mb 58f 56f
6:54pm 8 10 mph 1018.3mb 58f 56f
6:48pm 8 10 mph 1018.3mb 58f 56f
6:36pm 8 9 mph 1018.3mb 58f 56f
6:30pm 8 9 mph 1018.3mb 58f 56f
6:24pm 9
mph
1018.4mb 58f 56f
6:18pm 8 9 mph 1018.4mb 58f 56f
6:12pm 8 9 mph 1018.4mb 58f 56f
6:06pm 8 9 mph 1018.5mb 58f 56f
6:00pm 9 10 mph 1018.6mb 58f 56f
5:54pm 9 11 mph 1018.6mb 58f 56f
5:48pm 11 14 mph 1018.7mb 58f 56f
5:36pm 9 11 mph 1018.8mb 58f 56f
5:30pm 11 15 mph 1018.8mb 58f 56f
5:24pm 11 13 mph 1018.8mb 58f 56f
5:18pm 11 13 mph 1018.9mb 58f 56f
5:12pm 10 14 mph 1018.9mb 57f 56f
5:06pm 14 15 mph 1018.9mb 57f 56f
5:00pm 11 14 mph 1018.8mb 57f 56f
4:54pm 11 14 mph 1018.8mb 57f 56f
4:48pm 11 15 mph 1018.8mb 57f 56f
4:36pm 11 14 mph 1018.9mb 57f 56f
4:30pm 10 13 mph 1018.8mb 57f 56f
4:24pm 10 11 mph 1018.9mb 56f 56f
4:18pm 10 11 mph 1018.9mb 56f 56f
4:12pm 9 11 mph 1018.9mb 56f 56f
4:06pm 9 10 mph 1018.9mb 56f 56f
4:00pm 9 10 mph 1018.8mb 56f 56f
3:54pm 9 10 mph 1018.8mb 56f 56f
3:48pm 8 9 mph 1018.8mb 56f 56f
3:36pm 8 10 mph 1018.8mb 56f 55f
3:30pm 10
mph
1018.8mb 56f 55f
3:24pm 10 11 mph 1018.8mb 56f 55f
3:18pm 10 13 mph 1018.8mb 56f 55f
3:12pm 9 10 mph 1018.8mb 56f 55f
3:06pm 9 13 mph 1018.8mb 56f 55f
3:00pm 10 13 mph 1018.8mb 56f 55f
2:54pm 11
mph
1018.8mb 56f 55f
2:48pm 11 14 mph 1018.9mb 56f 55f
2:36pm 14 15 mph 1018.9mb 56f 55f
2:30pm 14 15 mph 1018.9mb 56f 55f
2:24pm 13 15 mph 1019mb 56f 55f
2:18pm 14 16 mph 1019mb 56f 55f
2:12pm 14 16 mph 1019mb 56f 55f
2:06pm 14 15 mph 1019mb 56f 55f
2:00pm 13 14 mph 1019mb 56f 55f
1:54pm 13 14 mph 1019.1mb 56f 55f
1:48pm 10 14 mph 1019.1mb 56f 55f
1:36pm 11 14 mph 1019mb 56f 55f
1:30pm 11 14 mph 1019mb 56f 55f
1:24pm 11 14 mph 1019mb 56f 55f
1:18pm 11 14 mph 1019mb 56f 55f
1:12pm 10 13 mph 1019.1mb 56f 55f
1:06pm 11 14 mph 1019.1mb 56f 55f
1:00pm 14 15 mph 1019.1mb 56f 55f
12:54pm 13 15 mph 1019.1mb 57f 55f
12:48pm 13 14 mph 1019.1mb 57f 55f
12:36pm 9 10 mph 1019.1mb 57f 55f
12:30pm 9 11 mph 1019.1mb 57f 55f
12:24pm 10 11 mph 1019.1mb 57f 54f
12:18pm 8 10 mph 1019.1mb 57f 55f
12:12pm 10 11 mph 1019.1mb 57f 54f
12:06pm 9 10 mph 1019.1mb 57f 54f
12:00pm 10
mph
1019.1mb 57f 54f
11:54am 10
mph
1019.2mb 57f 55f
11:48am 8 9 mph 1019.2mb 57f 55f
11:36am 7 8 mph 1019.2mb 57f 55f
11:30am 5 6 mph 1019.2mb 57f 55f
11:24am 6
mph
1019.1mb 57f 55f
11:18am 6 7 mph 1019.1mb 57f 55f
11:12am 6 7 mph 1019mb 57f 55f
11:06am 6 7 mph 1019mb 57f 55f
11:00am 7 8 mph 1019mb 57f 55f
10:54am 7 8 mph 1019mb 57f 55f
10:48am 7 8 mph 1018.9mb 57f 55f
10:36am 10
mph
1018.9mb 58f 55f
10:30am 9 10 mph 1018.8mb 58f 55f
10:24am 8
mph
1018.8mb 58f 55f
10:18am 8 9 mph 1018.8mb 58f 54f
10:12am 7 8 mph 1018.8mb 59f 54f
10:06am 7 8 mph 1018.7mb 59f 55f
10:00am 7 8 mph 1018.7mb 59f 54f
9:54am 6 9 mph 1018.6mb 59f 54f
9:48am 7 8 mph 1018.6mb 59f 54f
9:36am 5 6 mph 1018.6mb 60f 54f
9:30am 6
mph
1018.6mb 60f 55f
9:24am 5 6 mph 1018.6mb 60f 55f
9:18am 6
mph
1018.6mb 61f 55f
9:12am 6
mph
1018.6mb 61f 55f
9:06am 5 6 mph 1018.6mb 61f 55f
9:00am 5
mph
1018.5mb 61f 55f
8:54am 5 6 mph 1018.5mb 61f 55f
8:48am 5 6 mph 1018.5mb 61f 55f
8:36am 3 5 mph 1018.4mb 61f 54f
8:30am 2 3 mph 1018.4mb 62f 54f
8:24am 3 5 mph 1018.4mb 62f 54f
8:18am 3 5 mph 1018.4mb 62f 54f
8:12am 3
mph
1018.3mb 62f 54f
8:06am 3
mph
1018.3mb 62f 54f
8:00am 3 5 mph 1018.2mb 62f 54f
7:54am 3
mph
1018.2mb 62f 54f
7:48am 3
mph
1018.2mb 62f 54f
7:36am 3
mph
1018mb 63f 54f
7:30am 3 5 mph 1018.1mb 63f 54f
7:24am 5 6 mph 1018mb 63f 54f
7:18am 5 6 mph 1018mb 63f 54f
7:12am 5 6 mph 1017.9mb 63f 54f
7:06am 3
mph
1017.9mb 63f 54f
7:00am 2 3 mph 1017.9mb 63f 54f
6:54am 2
mph
1017.9mb 63f 54f
6:48am 2 3 mph 1017.8mb 62f 54f
6:36am 5
mph
1017.7mb 62f 54f
6:30am 3 5 mph 1017.7mb 62f 54f
6:24am 3 6 mph 1017.7mb 62f 54f
6:18am 5 6 mph 1017.6mb 62f 55f
6:12am 5 6 mph 1017.6mb 62f 55f
6:06am 5
mph
1017.6mb 62f 55f
6:00am 5 6 mph 1017.5mb 62f 55f
5:54am 5 6 mph 1017.5mb 62f 55f
5:48am 5
mph
1017.5mb 62f 55f
5:36am 5
mph
1017.5mb 61f 55f
5:30am 3 5 mph 1017.5mb 61f 55f
5:24am 3 5 mph 1017.5mb 60f 55f
5:18am 3 5 mph 1017.5mb 60f 55f
5:12am 3 5 mph 1017.4mb 60f 55f
5:06am 3 5 mph 1017.4mb 59f 55f
5:00am 2 3 mph 1017.4mb 59f 55f
4:54am 3 5 mph 1017.4mb 58f 55f
4:48am 3 5 mph 1017.3mb 58f 55f
4:36am 3
mph
1017.3mb 58f 55f
4:30am 3 5 mph 1017.3mb 57f 55f
4:24am 3 5 mph 1017.3mb 57f 55f
4:18am 3 5 mph 1017.3mb 57f 55f
4:12am 3 5 mph 1017.3mb 56f 55f
4:06am 3 5 mph 1017.3mb 56f 55f
4:00am 3
mph
1017.3mb 56f 55f
3:54am 2
mph
1017.2mb 56f 55f
3:48am 2
mph
1017.2mb 56f 55f
3:36am  -  1 mph 1017.2mb 56f 55f
3:30am  -  1 mph 1017.2mb 56f 55f
3:24am  -  1 mph 1017.2mb 56f 55f
3:18am  -  1 mph 1017.2mb 56f 55f
3:12am 1 2 mph 1017.2mb 56f 55f
3:06am 1 2 mph 1017.2mb 56f 55f
3:00am 2
mph
1017.2mb 56f 55f
2:54am 2
mph
1017.2mb 56f 55f
2:48am 2 3 mph 1017.2mb 56f 55f
2:36am 5
mph
1017.2mb 56f 55f
2:30am 3 5 mph 1017.2mb 56f 55f
2:24am 3 5 mph 1017.3mb 56f 55f
2:18am 3
mph
1017.2mb 56f 55f
2:12am 5 6 mph 1017.2mb 56f 55f
2:06am 5 6 mph 1017.1mb 56f 55f
2:00am 5
mph
1017.1mb 56f 55f
1:54am 5 6 mph 1017.1mb 56f 55f
1:48am 6 7 mph 1017.1mb 56f 55f
1:36am 8 9 mph 1017.2mb 56f 55f
1:30am 9
mph
1017.1mb 56f 55f
1:24am 9 10 mph 1017.1mb 56f 55f
1:18am 9
mph
1017.1mb 56f 55f
1:12am 8 9 mph 1017.1mb 56f 55f
1:06am 8 9 mph 1017.1mb 56f 55f
1:00am 7 8 mph 1017.1mb 56f 55f
12:54am 6 7 mph 1017.1mb 56f 55f
12:48am 8
mph
1017.1mb 56f 55f
12:36am 7
mph
1017.2mb 56f 55f
12:30am 8
mph
1017.2mb 56f 56f
12:24am 7 8 mph 1017.2mb 56f 56f
12:18am 8 9 mph 1017.3mb 56f 56f
12:12am 8 9 mph 1017.3mb 56f 56f
12:06am 8
mph
1017.3mb 56f 56f
12:00am 7
mph
1017.4mb 56f 56f
Sun 06/28 11:54pm 7
mph
1017.3mb 56f 56f
11:48pm 7 9 mph 1017.4mb 56f 56f
11:36pm 8 9 mph 1017.4mb 56f -
11:30pm 9 10 mph 1017.4mb 56f -
11:24pm 8 9 mph 1017.3mb 56f -
11:18pm 8 9 mph 1017.4mb 55f -
11:12pm 7 8 mph 1017.3mb 55f -
11:06pm 6 7 mph 1017.4mb 55f -
11:00pm 6 7 mph 1017.4mb 55f -
10:54pm 7 8 mph 1017.5mb 55f -
10:48pm 7 9 mph 1017.4mb 55f -
10:36pm 11 13 mph 1017.4mb 55f 55f
10:30pm 11 14 mph 1017.4mb 55f 55f
10:24pm 13 14 mph 1017.4mb 55f 55f
10:18pm 13 14 mph 1017.4mb 55f 55f
10:12pm 13 14 mph 1017.4mb 55f 55f
10:06pm 13 15 mph 1017.3mb 55f 55f
10:00pm 13 14 mph 1017.2mb 55f 56f
9:54pm 11
mph
1017.1mb 55f 56f
9:48pm 10 13 mph 1017mb 55f 56f
9:36pm 9 10 mph 1016.9mb 55f 56f
9:30pm 10 11 mph 1016.8mb 55f 56f
9:24pm 8 10 mph 1016.8mb 55f 56f
9:18pm 9 10 mph 1016.7mb 55f 56f
9:12pm 7 9 mph 1016.7mb 55f 56f
9:06pm 6 7 mph 1016.6mb 55f 56f
9:00pm 7 8 mph 1016.6mb 55f 56f
8:54pm 7 11 mph 1016.6mb 55f 56f
8:48pm 6 9 mph 1016.6mb 55f 56f
8:36pm 7 10 mph 1016.6mb 55f 56f
8:30pm 8 10 mph 1016.5mb 55f 56f
8:24pm 8 10 mph 1016.4mb 55f 56f
8:18pm 7 9 mph 1016.4mb 55f 56f
8:12pm 7 11 mph 1016.3mb 56f 56f
8:06pm 9 10 mph 1016.4mb 56f 57f
8:00pm 9 10 mph 1016.3mb 56f 57f
7:54pm 9 10 mph 1016.3mb 56f 57f
7:48pm 10
mph
1016.2mb 56f 57f
7:36pm 9 10 mph 1016.1mb 57f 58f
7:30pm 9 11 mph 1016.1mb 57f 58f
7:24pm 10 11 mph 1016.1mb 57f 58f
7:18pm 6 7 mph 1016mb 57f 59f
7:12pm 5 6 mph 1016mb 57f 60f
7:06pm 3 5 mph 1016mb 57f 61f
7:00pm 3
mph
1016mb 57f 60f
6:54pm 2 5 mph 1016mb 58f 60f
6:48pm 2 6 mph 1016.1mb 58f 60f
6:36pm 5 7 mph 1016.1mb 58f 59f
6:30pm 6 7 mph 1016mb 58f 59f
6:24pm 6 8 mph 1016.1mb 58f 58f
6:18pm 5 6 mph 1016.2mb 58f 59f
6:12pm 6 7 mph 1016.2mb 58f 59f
6:06pm 6
mph
1016.2mb 58f 58f
6:00pm 5 6 mph 1016.2mb 58f 58f
5:54pm 5
mph
1016.2mb 59f 58f
5:48pm 5 6 mph 1016.3mb 59f 58f
5:36pm 6 7 mph 1016.3mb 59f 58f
5:30pm 6 7 mph 1016.3mb 59f 58f
5:24pm 6 7 mph 1016.3mb 59f 58f
5:18pm 6 7 mph 1016.3mb 59f 58f
5:12pm 6 7 mph 1016.3mb 58f 58f
5:06pm 6 7 mph 1016.4mb 58f 58f
5:00pm 6 7 mph 1016.4mb 58f 58f
4:54pm 7 8 mph 1016.4mb 58f 58f
4:48pm 7 8 mph 1016.4mb 58f 57f
4:36pm 8 9 mph 1016.5mb 58f 57f
4:30pm 9 10 mph 1016.5mb 58f 57f
4:24pm 9 11 mph 1016.5mb 58f 58f
4:18pm 7 8 mph 1016.5mb 57f 58f
4:12pm 7 9 mph 1016.6mb 57f 58f
4:06pm 6 8 mph 1016.6mb 57f 58f
4:00pm 6 9 mph 1016.6mb 57f 57f
3:54pm 7 8 mph 1016.7mb 56f 57f
3:48pm 6 7 mph 1016.7mb 56f 58f
3:36pm 6
mph
1016.6mb 56f 57f
3:30pm 5 7 mph 1016.6mb 56f 56f
3:24pm 5 6 mph 1016.6mb 56f 57f
3:18pm 5 6 mph 1016.7mb 56f 57f
3:12pm 5
mph
1016.8mb 56f 57f
3:06pm 5 6 mph 1016.8mb 55f 57f
3:00pm 5 6 mph 1016.7mb 55f 57f
2:54pm 5 6 mph 1016.7mb 55f 56f
2:48pm 6 7 mph 1016.7mb 55f 56f
2:36pm 6 7 mph 1016.8mb 55f 55f
2:30pm 7
mph
1016.9mb 55f 56f
2:24pm 7 8 mph 1016.8mb 55f 55f
2:18pm 8 9 mph 1016.9mb 55f 55f
2:12pm 9 10 mph 1016.9mb 55f 55f
2:06pm 9 11 mph 1016.9mb 55f 55f
2:00pm 10 11 mph 1016.9mb 55f 55f
1:54pm 10
mph
1016.9mb 55f 55f
1:48pm 10 11 mph 1016.9mb 55f 55f
1:36pm 10 11 mph 1016.9mb 55f 56f
1:30pm 9 11 mph 1016.9mb 55f 56f
1:24pm 8 10 mph 1016.9mb 55f 56f
1:18pm 8 9 mph 1016.9mb 55f 55f
1:12pm 8 9 mph 1016.9mb 55f 55f
1:06pm 8
mph
1016.9mb 55f 55f
1:00pm 8
mph
1016.9mb 55f 55f
12:54pm 8
mph
1016.9mb 55f 54f
12:48pm 8 9 mph 1016.9mb 55f 54f
12:36pm 9
mph
1016.9mb 55f 54f
12:30pm 8 9 mph 1016.9mb 55f 54f
12:24pm 8
mph
1016.9mb 55f 54f
12:18pm 8
mph
1016.9mb 55f 54f
12:12pm 8 9 mph 1016.9mb 55f 54f
12:06pm 8 9 mph 1017mb 55f 54f
12:00pm 8 9 mph 1016.9mb 55f 54f
11:54am 7 9 mph 1016.9mb 55f 55f
11:48am 8 9 mph 1016.9mb 55f 55f
11:36am 7
mph
1016.9mb 55f 55f
11:30am 7
mph
1016.9mb 56f 55f
11:24am 7 8 mph 1016.9mb 56f 55f
11:18am 7 8 mph 1016.9mb 56f 55f
11:12am 7
mph
1017mb 56f 55f
11:06am 5 6 mph 1017mb 55f 55f
11:00am 6 7 mph 1017mb 56f 55f
10:54am 6
mph
1017mb 56f 55f
10:48am 6 7 mph 1016.9mb 56f 55f
10:36am 7
mph
1016.9mb 56f 55f
10:30am 7
mph
1016.9mb 56f 55f
10:24am 6 7 mph 1016.9mb 56f 55f
10:18am 7
mph
1016.9mb 56f 55f
10:12am 7
mph
1016.9mb 56f 55f
10:06am 6
mph
1017mb 56f 55f
10:00am 6
mph
1017.1mb 56f 55f
9:54am 6
mph
1017mb 57f 55f
9:48am 6
mph
1017mb 57f 55f
9:36am 6
mph
1016.7mb 57f 55f
9:30am 6
mph
1016.7mb 57f 55f
9:24am 6
mph
1016.7mb 57f 55f
9:18am 6
mph
1016.6mb 58f 55f
9:12am 5
mph
1016.7mb 58f 55f
9:06am 6
mph
1016.8mb 58f 55f
9:00am 6
mph
1016.8mb 59f 55f
8:54am 6 7 mph 1017mb 59f 55f
8:48am 7 8 mph 1017.1mb 59f 55f
8:36am 7 8 mph 1016.5mb 60f 55f
8:30am 9 10 mph 1016.3mb 60f 55f
8:24am 7 9 mph 1016.5mb 60f 55f
8:18am 7 9 mph 1016.6mb 60f 55f
8:12am 9 10 mph 1016.3mb 60f 55f
8:06am 8 9 mph 1016.3mb 60f 55f
8:00am 5 7 mph 1016.9mb 60f 55f
7:54am 6 7 mph 1016.5mb 61f 55f
7:48am 7 8 mph 1016.5mb 61f 55f
7:36am 8 9 mph 1016.6mb 61f 55f
7:30am 8 9 mph 1016.4mb 61f 55f
7:24am 9 10 mph 1016.2mb 61f 55f
7:18am 8 9 mph 1016.2mb 61f 55f
7:12am 7
mph
1016.3mb 61f 55f
7:06am 6 7 mph 1016.2mb 62f 55f
7:00am 7 8 mph 1015.8mb 62f 55f
6:54am 7 8 mph 1015.9mb 62f 55f
6:48am 6 7 mph 1015.9mb 62f 55f
6:36am 7 8 mph 1015.9mb 62f 55f
6:30am 6 7 mph 1016mb 62f 55f
6:24am 6
mph
1016mb 62f 55f
6:18am 6 7 mph 1015.9mb 62f 55f
6:12am 6 9 mph 1015.7mb 62f 55f
6:06am 8 10 mph 1015.5mb 62f 55f
6:00am 10
mph
1015.3mb 62f 55f
5:54am 8 9 mph 1015.4mb 62f 55f
5:48am 8 9 mph 1015.4mb 62f 55f
5:36am 6 7 mph 1015.5mb 62f 55f
5:30am 7 13 mph 1015.2mb 62f 55f
5:24am 13 14 mph 1014.9mb 62f 55f
5:18am 9 11 mph 1015.3mb 61f 55f
5:12am 2 5 mph 1016.1mb 61f 55f
5:06am 5 6 mph 1015.9mb 61f 55f
5:00am 3 5 mph 1016mb 61f 55f
4:54am 6 10 mph 1015.3mb 60f 55f
4:48am 11 14 mph 1014.8mb 60f 55f
4:36am 11 13 mph 1015.1mb 60f 55f
4:30am 10 11 mph 1015.3mb 59f 55f
4:24am 7 10 mph 1015.4mb 59f 55f
4:18am 5
mph
1015.8mb 58f 55f
4:12am 5
mph
1015.8mb 58f 55f
4:06am 3 5 mph 1015.6mb 58f 55f
4:00am 3 6 mph 1015.7mb 57f 55f
3:54am 6 8 mph 1015.4mb 57f 55f
3:48am 6 7 mph 1015.5mb 57f 55f
3:36am 2 3 mph 1015.8mb 57f 55f
3:30am 1 2 mph 1015.7mb 57f 55f
3:24am 2 6 mph 1015.5mb 57f 56f
3:18am 6 7 mph 1015.2mb 56f 56f
3:12am 6 7 mph 1015.4mb 56f 56f
3:06am 6 7 mph 1015.4mb 56f 56f
3:00am 5 6 mph 1015.5mb 56f 56f
2:54am 5 6 mph 1015.7mb 56f 56f
2:48am 6
mph
1015.5mb 56f 56f
2:36am 6
mph
- 56f 56f
2:30am 3 5 mph - 56f 56f
2:24am 3
mph
- 56f 56f
2:18am 5 7 mph - 56f 56f
2:12am 7 8 mph - 56f 56f
2:06am 7
mph
- 56f 56f
2:00am 3 6 mph - 56f 56f
1:54am 1 2 mph - 56f 56f
1:48am 2 3 mph - 56f 56f
1:36am 3 5 mph 1015.7mb 56f 56f
1:30am 6 8 mph 1015.5mb 56f 56f
1:24am 5 6 mph 1015.6mb 55f 56f
1:18am 5 6 mph 1015.9mb 55f 56f
1:12am 5 6 mph 1015.7mb 56f 56f
1:06am 6 7 mph 1015.9mb 56f 56f
1:00am 8 9 mph 1015.6mb 56f 56f
12:54am 7 9 mph 1015.4mb 56f 56f
12:48am 9
mph
1015.2mb 56f 56f
12:36am 6 7 mph 1015.8mb 56f 56f
12:30am 7 8 mph 1015.7mb 56f 56f